sensor_id;sensor_type;location;lat;lon;timestamp;temperature;humidity
75210;DHT22;63796;53.136;14.882;2023-05-20T00:00:13;9.70;99.90
75210;DHT22;63796;53.136;14.882;2023-05-20T00:03:00;9.80;99.90
75210;DHT22;63796;53.136;14.882;2023-05-20T00:05:28;9.60;99.90
75210;DHT22;63796;53.136;14.882;2023-05-20T00:07:55;9.60;99.90
75210;DHT22;63796;53.136;14.882;2023-05-20T00:10:23;9.50;99.90
75210;DHT22;63796;53.136;14.882;2023-05-20T00:12:50;9.40;99.90
75210;DHT22;63796;53.136;14.882;2023-05-20T00:15:18;9.30;99.90
75210;DHT22;63796;53.136;14.882;2023-05-20T00:17:45;9.30;99.90
75210;DHT22;63796;53.136;14.882;2023-05-20T00:20:13;9.40;99.90
75210;DHT22;63796;53.136;14.882;2023-05-20T00:22:41;9.40;99.90
75210;DHT22;63796;53.136;14.882;2023-05-20T00:25:08;9.40;99.90
75210;DHT22;63796;53.136;14.882;2023-05-20T00:27:36;9.30;99.90
75210;DHT22;63796;53.136;14.882;2023-05-20T00:30:03;9.20;99.90
75210;DHT22;63796;53.136;14.882;2023-05-20T00:32:32;9.30;99.90
75210;DHT22;63796;53.136;14.882;2023-05-20T00:35:00;9.40;99.90
75210;DHT22;63796;53.136;14.882;2023-05-20T00:37:27;9.50;99.90
75210;DHT22;63796;53.136;14.882;2023-05-20T00:39:55;9.60;99.90
75210;DHT22;63796;53.136;14.882;2023-05-20T00:42:23;9.70;99.90
75210;DHT22;63796;53.136;14.882;2023-05-20T00:44:51;9.70;99.90
75210;DHT22;63796;53.136;14.882;2023-05-20T00:47:21;9.60;99.90
75210;DHT22;63796;53.136;14.882;2023-05-20T00:49:52;9.60;99.90
75210;DHT22;63796;53.136;14.882;2023-05-20T00:52:21;9.60;99.90
75210;DHT22;63796;53.136;14.882;2023-05-20T00:54:48;9.40;99.90
75210;DHT22;63796;53.136;14.882;2023-05-20T00:57:18;9.40;99.90
75210;DHT22;63796;53.136;14.882;2023-05-20T00:59:46;9.40;99.90
75210;DHT22;63796;53.136;14.882;2023-05-20T01:02:13;9.40;99.90
75210;DHT22;63796;53.136;14.882;2023-05-20T01:04:42;9.50;99.90
75210;DHT22;63796;53.136;14.882;2023-05-20T01:07:16;9.50;99.90
75210;DHT22;63796;53.136;14.882;2023-05-20T01:09:44;9.50;99.90
75210;DHT22;63796;53.136;14.882;2023-05-20T01:14:47;9.40;99.90
75210;DHT22;63796;53.136;14.882;2023-05-20T01:17:17;9.50;99.90
75210;DHT22;63796;53.136;14.882;2023-05-20T01:19:47;9.50;99.90
75210;DHT22;63796;53.136;14.882;2023-05-20T01:22:15;9.50;99.90
75210;DHT22;63796;53.136;14.882;2023-05-20T01:24:44;9.60;99.90
75210;DHT22;63796;53.136;14.882;2023-05-20T01:27:14;9.60;99.90
75210;DHT22;63796;53.136;14.882;2023-05-20T01:29:41;9.50;99.90
75210;DHT22;63796;53.136;14.882;2023-05-20T01:32:11;9.40;99.90
75210;DHT22;63796;53.136;14.882;2023-05-20T01:34:50;9.60;99.90
75210;DHT22;63796;53.136;14.882;2023-05-20T01:37:18;9.70;99.90
75210;DHT22;63796;53.136;14.882;2023-05-20T01:39:48;9.70;99.90
75210;DHT22;63796;53.136;14.882;2023-05-20T01:42:16;9.70;99.90
75210;DHT22;63796;53.136;14.882;2023-05-20T01:44:47;9.70;99.90
75210;DHT22;63796;53.136;14.882;2023-05-20T01:47:14;9.70;99.90
75210;DHT22;63796;53.136;14.882;2023-05-20T01:49:41;9.50;99.90
75210;DHT22;63796;53.136;14.882;2023-05-20T01:52:09;9.30;99.90
75210;DHT22;63796;53.136;14.882;2023-05-20T01:54:36;9.40;99.90
75210;DHT22;63796;53.136;14.882;2023-05-20T01:57:03;9.50;99.90
75210;DHT22;63796;53.136;14.882;2023-05-20T01:59:31;9.50;99.90
75210;DHT22;63796;53.136;14.882;2023-05-20T02:01:59;9.60;99.90
75210;DHT22;63796;53.136;14.882;2023-05-20T02:04:26;9.80;99.90
75210;DHT22;63796;53.136;14.882;2023-05-20T02:06:53;9.90;99.90
75210;DHT22;63796;53.136;14.882;2023-05-20T02:09:21;10.10;99.90
75210;DHT22;63796;53.136;14.882;2023-05-20T02:11:49;10.20;99.90
75210;DHT22;63796;53.136;14.882;2023-05-20T02:14:16;10.30;99.90
75210;DHT22;63796;53.136;14.882;2023-05-20T02:16:44;10.50;99.90
75210;DHT22;63796;53.136;14.882;2023-05-20T02:19:12;10.40;99.90
75210;DHT22;63796;53.136;14.882;2023-05-20T02:21:40;10.40;99.90
75210;DHT22;63796;53.136;14.882;2023-05-20T02:24:08;10.50;99.90
75210;DHT22;63796;53.136;14.882;2023-05-20T02:26:35;10.50;99.90
75210;DHT22;63796;53.136;14.882;2023-05-20T02:29:03;10.50;99.90
75210;DHT22;63796;53.136;14.882;2023-05-20T02:31:30;10.50;99.90
75210;DHT22;63796;53.136;14.882;2023-05-20T02:33:58;10.40;99.90
75210;DHT22;63796;53.136;14.882;2023-05-20T02:36:25;10.40;99.90
75210;DHT22;63796;53.136;14.882;2023-05-20T02:38:53;10.60;99.90
75210;DHT22;63796;53.136;14.882;2023-05-20T02:41:22;10.50;99.90
75210;DHT22;63796;53.136;14.882;2023-05-20T02:43:50;10.60;99.90
75210;DHT22;63796;53.136;14.882;2023-05-20T02:46:17;10.50;99.90
75210;DHT22;63796;53.136;14.882;2023-05-20T02:48:45;10.60;99.90
75210;DHT22;63796;53.136;14.882;2023-05-20T02:51:13;10.60;99.90
75210;DHT22;63796;53.136;14.882;2023-05-20T02:53:40;10.50;99.90
75210;DHT22;63796;53.136;14.882;2023-05-20T02:56:07;10.60;99.90
75210;DHT22;63796;53.136;14.882;2023-05-20T02:58:35;10.70;99.90
75210;DHT22;63796;53.136;14.882;2023-05-20T03:01:03;10.70;99.90
75210;DHT22;63796;53.136;14.882;2023-05-20T03:03:30;10.80;99.90
75210;DHT22;63796;53.136;14.882;2023-05-20T03:05:58;10.70;99.90
75210;DHT22;63796;53.136;14.882;2023-05-20T03:08:25;10.80;99.90
75210;DHT22;63796;53.136;14.882;2023-05-20T03:10:53;10.80;99.90
75210;DHT22;63796;53.136;14.882;2023-05-20T03:13:21;10.90;99.90
75210;DHT22;63796;53.136;14.882;2023-05-20T03:15:48;10.80;99.90
75210;DHT22;63796;53.136;14.882;2023-05-20T03:18:15;10.80;99.90
75210;DHT22;63796;53.136;14.882;2023-05-20T03:20:43;10.90;99.90
75210;DHT22;63796;53.136;14.882;2023-05-20T03:23:10;10.90;99.90
75210;DHT22;63796;53.136;14.882;2023-05-20T03:25:38;11.00;99.90
75210;DHT22;63796;53.136;14.882;2023-05-20T03:28:06;11.00;99.90
75210;DHT22;63796;53.136;14.882;2023-05-20T03:30:33;11.10;99.90
75210;DHT22;63796;53.136;14.882;2023-05-20T03:33:01;11.00;99.90
75210;DHT22;63796;53.136;14.882;2023-05-20T03:35:29;11.10;99.90
75210;DHT22;63796;53.136;14.882;2023-05-20T03:37:56;11.00;99.90
75210;DHT22;63796;53.136;14.882;2023-05-20T03:40:24;11.10;99.90
75210;DHT22;63796;53.136;14.882;2023-05-20T03:42:52;11.20;99.90
75210;DHT22;63796;53.136;14.882;2023-05-20T03:45:19;11.10;99.90
75210;DHT22;63796;53.136;14.882;2023-05-20T03:47:46;11.10;99.90
75210;DHT22;63796;53.136;14.882;2023-05-20T03:50:14;11.20;99.90
75210;DHT22;63796;53.136;14.882;2023-05-20T03:52:41;11.30;99.90
75210;DHT22;63796;53.136;14.882;2023-05-20T03:55:09;11.30;99.90
75210;DHT22;63796;53.136;14.882;2023-05-20T03:57:36;11.30;99.90
75210;DHT22;63796;53.136;14.882;2023-05-20T04:00:04;11.40;99.90
75210;DHT22;63796;53.136;14.882;2023-05-20T04:02:37;11.40;99.90
75210;DHT22;63796;53.136;14.882;2023-05-20T04:05:04;11.50;99.90
75210;DHT22;63796;53.136;14.882;2023-05-20T04:07:34;11.50;99.90
75210;DHT22;63796;53.136;14.882;2023-05-20T04:10:02;11.50;99.90
75210;DHT22;63796;53.136;14.882;2023-05-20T04:12:31;11.60;99.90
75210;DHT22;63796;53.136;14.882;2023-05-20T04:14:58;11.60;99.90
75210;DHT22;63796;53.136;14.882;2023-05-20T04:17:29;11.60;99.90
75210;DHT22;63796;53.136;14.882;2023-05-20T04:19:57;11.70;99.90
75210;DHT22;63796;53.136;14.882;2023-05-20T04:22:27;11.70;99.90
75210;DHT22;63796;53.136;14.882;2023-05-20T04:24:55;11.70;99.90
75210;DHT22;63796;53.136;14.882;2023-05-20T04:27:22;11.70;99.90
75210;DHT22;63796;53.136;14.882;2023-05-20T04:29:50;11.70;99.90
75210;DHT22;63796;53.136;14.882;2023-05-20T04:32:18;11.80;99.90
75210;DHT22;63796;53.136;14.882;2023-05-20T04:34:45;11.80;99.90
75210;DHT22;63796;53.136;14.882;2023-05-20T04:37:13;11.90;99.90
75210;DHT22;63796;53.136;14.882;2023-05-20T04:39:41;11.90;99.90
75210;DHT22;63796;53.136;14.882;2023-05-20T04:42:09;11.90;99.90
75210;DHT22;63796;53.136;14.882;2023-05-20T04:44:37;12.00;99.90
75210;DHT22;63796;53.136;14.882;2023-05-20T04:47:07;12.00;99.90
75210;DHT22;63796;53.136;14.882;2023-05-20T04:49:35;12.00;99.90
75210;DHT22;63796;53.136;14.882;2023-05-20T04:52:02;12.10;99.90
75210;DHT22;63796;53.136;14.882;2023-05-20T04:54:30;12.20;99.90
75210;DHT22;63796;53.136;14.882;2023-05-20T04:57:32;12.20;99.90
75210;DHT22;63796;53.136;14.882;2023-05-20T05:00:01;12.30;99.90
75210;DHT22;63796;53.136;14.882;2023-05-20T05:02:28;12.40;99.90
75210;DHT22;63796;53.136;14.882;2023-05-20T05:04:55;12.40;99.90
75210;DHT22;63796;53.136;14.882;2023-05-20T05:07:23;12.50;99.90
75210;DHT22;63796;53.136;14.882;2023-05-20T05:09:50;12.50;99.90
75210;DHT22;63796;53.136;14.882;2023-05-20T05:12:18;12.60;99.90
75210;DHT22;63796;53.136;14.882;2023-05-20T05:14:45;12.60;99.90
75210;DHT22;63796;53.136;14.882;2023-05-20T05:17:12;12.80;99.90
75210;DHT22;63796;53.136;14.882;2023-05-20T05:19:39;12.80;99.90
75210;DHT22;63796;53.136;14.882;2023-05-20T05:22:07;12.70;99.90
75210;DHT22;63796;53.136;14.882;2023-05-20T05:24:34;12.80;99.90
75210;DHT22;63796;53.136;14.882;2023-05-20T05:27:01;12.70;99.90
75210;DHT22;63796;53.136;14.882;2023-05-20T05:29:29;12.90;99.90
75210;DHT22;63796;53.136;14.882;2023-05-20T05:31:56;12.90;99.90
75210;DHT22;63796;53.136;14.882;2023-05-20T05:34:24;13.10;99.90
75210;DHT22;63796;53.136;14.882;2023-05-20T05:36:51;13.00;99.90
75210;DHT22;63796;53.136;14.882;2023-05-20T05:39:18;12.90;99.90
75210;DHT22;63796;53.136;14.882;2023-05-20T05:41:46;13.00;99.90
75210;DHT22;63796;53.136;14.882;2023-05-20T05:44:14;13.00;99.90
75210;DHT22;63796;53.136;14.882;2023-05-20T05:46:41;12.80;99.90
75210;DHT22;63796;53.136;14.882;2023-05-20T05:49:09;12.90;99.90
75210;DHT22;63796;53.136;14.882;2023-05-20T05:51:36;12.90;99.90
75210;DHT22;63796;53.136;14.882;2023-05-20T05:54:04;12.90;99.90
75210;DHT22;63796;53.136;14.882;2023-05-20T05:56:32;12.90;99.90
75210;DHT22;63796;53.136;14.882;2023-05-20T05:58:59;13.00;99.90
75210;DHT22;63796;53.136;14.882;2023-05-20T06:01:27;13.00;99.90
75210;DHT22;63796;53.136;14.882;2023-05-20T06:03:54;13.10;99.90
75210;DHT22;63796;53.136;14.882;2023-05-20T06:06:22;13.00;99.90
75210;DHT22;63796;53.136;14.882;2023-05-20T06:08:49;13.00;99.90
75210;DHT22;63796;53.136;14.882;2023-05-20T06:11:16;13.20;99.90
75210;DHT22;63796;53.136;14.882;2023-05-20T06:13:44;13.00;99.90
75210;DHT22;63796;53.136;14.882;2023-05-20T06:16:11;13.00;99.90
75210;DHT22;63796;53.136;14.882;2023-05-20T06:18:39;13.10;99.90
75210;DHT22;63796;53.136;14.882;2023-05-20T06:21:07;13.20;99.90
75210;DHT22;63796;53.136;14.882;2023-05-20T06:23:34;13.10;99.90
75210;DHT22;63796;53.136;14.882;2023-05-20T06:26:01;13.20;99.90
75210;DHT22;63796;53.136;14.882;2023-05-20T06:28:29;13.50;99.90
75210;DHT22;63796;53.136;14.882;2023-05-20T06:30:56;13.60;99.90
75210;DHT22;63796;53.136;14.882;2023-05-20T06:33:24;13.70;99.90
75210;DHT22;63796;53.136;14.882;2023-05-20T06:35:57;13.80;99.90
75210;DHT22;63796;53.136;14.882;2023-05-20T06:38:24;13.70;99.90
75210;DHT22;63796;53.136;14.882;2023-05-20T06:40:52;13.40;99.90
75210;DHT22;63796;53.136;14.882;2023-05-20T06:43:19;13.40;99.90
75210;DHT22;63796;53.136;14.882;2023-05-20T06:45:49;13.60;99.90
75210;DHT22;63796;53.136;14.882;2023-05-20T06:48:16;13.70;99.90
75210;DHT22;63796;53.136;14.882;2023-05-20T06:50:44;13.60;99.90
75210;DHT22;63796;53.136;14.882;2023-05-20T06:53:11;13.60;99.90
75210;DHT22;63796;53.136;14.882;2023-05-20T06:55:39;13.80;99.90
75210;DHT22;63796;53.136;14.882;2023-05-20T06:58:06;14.00;99.90
75210;DHT22;63796;53.136;14.882;2023-05-20T07:00:33;13.90;99.90
75210;DHT22;63796;53.136;14.882;2023-05-20T07:03:01;13.70;99.90
75210;DHT22;63796;53.136;14.882;2023-05-20T07:05:28;13.80;99.90
75210;DHT22;63796;53.136;14.882;2023-05-20T07:07:56;13.50;99.90
75210;DHT22;63796;53.136;14.882;2023-05-20T07:10:23;13.60;99.90
75210;DHT22;63796;53.136;14.882;2023-05-20T07:12:51;13.80;99.90
75210;DHT22;63796;53.136;14.882;2023-05-20T07:15:18;14.00;99.90
75210;DHT22;63796;53.136;14.882;2023-05-20T07:17:45;13.90;99.90
75210;DHT22;63796;53.136;14.882;2023-05-20T07:20:12;13.70;99.90
75210;DHT22;63796;53.136;14.882;2023-05-20T07:22:40;14.00;99.90
75210;DHT22;63796;53.136;14.882;2023-05-20T07:25:07;14.20;99.90
75210;DHT22;63796;53.136;14.882;2023-05-20T07:27:35;14.20;99.90
75210;DHT22;63796;53.136;14.882;2023-05-20T07:30:02;14.20;99.90
75210;DHT22;63796;53.136;14.882;2023-05-20T07:32:30;14.30;99.90
75210;DHT22;63796;53.136;14.882;2023-05-20T07:34:57;14.20;99.90
75210;DHT22;63796;53.136;14.882;2023-05-20T07:37:25;14.00;99.90
75210;DHT22;63796;53.136;14.882;2023-05-20T07:39:52;14.00;99.90
75210;DHT22;63796;53.136;14.882;2023-05-20T07:42:19;14.20;99.90
75210;DHT22;63796;53.136;14.882;2023-05-20T07:44:47;14.20;99.90
75210;DHT22;63796;53.136;14.882;2023-05-20T07:47:14;14.10;99.90
75210;DHT22;63796;53.136;14.882;2023-05-20T07:49:41;14.20;99.90
75210;DHT22;63796;53.136;14.882;2023-05-20T07:52:10;14.20;99.90
75210;DHT22;63796;53.136;14.882;2023-05-20T07:54:38;14.20;99.90
75210;DHT22;63796;53.136;14.882;2023-05-20T07:57:05;14.60;99.90
75210;DHT22;63796;53.136;14.882;2023-05-20T07:59:32;14.50;99.90
75210;DHT22;63796;53.136;14.882;2023-05-20T08:02:00;14.50;99.90
75210;DHT22;63796;53.136;14.882;2023-05-20T08:04:27;14.40;99.90
75210;DHT22;63796;53.136;14.882;2023-05-20T08:06:55;14.70;99.90
75210;DHT22;63796;53.136;14.882;2023-05-20T08:09:22;14.80;99.90
75210;DHT22;63796;53.136;14.882;2023-05-20T08:11:50;14.60;99.90
75210;DHT22;63796;53.136;14.882;2023-05-20T08:14:17;15.20;99.90
75210;DHT22;63796;53.136;14.882;2023-05-20T08:16:45;15.90;99.90
75210;DHT22;63796;53.136;14.882;2023-05-20T08:19:12;15.80;99.90
75210;DHT22;63796;53.136;14.882;2023-05-20T08:21:40;15.60;99.90
75210;DHT22;63796;53.136;14.882;2023-05-20T08:24:07;15.20;99.90
75210;DHT22;63796;53.136;14.882;2023-05-20T08:26:34;15.10;99.90
75210;DHT22;63796;53.136;14.882;2023-05-20T08:29:02;15.00;99.90
75210;DHT22;63796;53.136;14.882;2023-05-20T08:31:29;15.20;99.90
75210;DHT22;63796;53.136;14.882;2023-05-20T08:33:56;15.50;99.90
75210;DHT22;63796;53.136;14.882;2023-05-20T08:36:24;15.80;99.90
75210;DHT22;63796;53.136;14.882;2023-05-20T08:38:51;16.00;99.90
75210;DHT22;63796;53.136;14.882;2023-05-20T08:41:19;16.10;99.90
75210;DHT22;63796;53.136;14.882;2023-05-20T08:43:48;15.90;99.90
75210;DHT22;63796;53.136;14.882;2023-05-20T08:46:17;16.20;99.90
75210;DHT22;63796;53.136;14.882;2023-05-20T08:48:46;16.30;99.90
75210;DHT22;63796;53.136;14.882;2023-05-20T08:51:14;16.60;99.90
75210;DHT22;63796;53.136;14.882;2023-05-20T08:53:43;16.20;99.90
75210;DHT22;63796;53.136;14.882;2023-05-20T08:56:12;16.10;99.90
75210;DHT22;63796;53.136;14.882;2023-05-20T08:58:41;16.20;99.90
75210;DHT22;63796;53.136;14.882;2023-05-20T09:01:09;16.00;99.90
75210;DHT22;63796;53.136;14.882;2023-05-20T09:03:37;16.20;99.90
75210;DHT22;63796;53.136;14.882;2023-05-20T09:06:07;16.00;99.90
75210;DHT22;63796;53.136;14.882;2023-05-20T09:08:35;16.30;99.90
75210;DHT22;63796;53.136;14.882;2023-05-20T09:11:03;16.00;99.90
75210;DHT22;63796;53.136;14.882;2023-05-20T09:13:30;15.80;99.90
75210;DHT22;63796;53.136;14.882;2023-05-20T09:16:00;16.00;99.90
75210;DHT22;63796;53.136;14.882;2023-05-20T09:18:29;15.90;99.90
75210;DHT22;63796;53.136;14.882;2023-05-20T09:20:56;16.30;99.90
75210;DHT22;63796;53.136;14.882;2023-05-20T09:23:23;16.20;99.90
75210;DHT22;63796;53.136;14.882;2023-05-20T09:25:52;16.20;99.90
75210;DHT22;63796;53.136;14.882;2023-05-20T09:28:22;16.20;99.90
75210;DHT22;63796;53.136;14.882;2023-05-20T09:30:56;16.30;99.90
75210;DHT22;63796;53.136;14.882;2023-05-20T09:33:28;16.20;99.90
75210;DHT22;63796;53.136;14.882;2023-05-20T09:36:06;16.20;99.90
75210;DHT22;63796;53.136;14.882;2023-05-20T09:38:38;16.20;99.90
75210;DHT22;63796;53.136;14.882;2023-05-20T09:41:07;15.90;99.90
75210;DHT22;63796;53.136;14.882;2023-05-20T09:43:40;15.90;99.90
75210;DHT22;63796;53.136;14.882;2023-05-20T09:46:08;15.80;99.90
75210;DHT22;63796;53.136;14.882;2023-05-20T09:48:37;16.20;99.90
75210;DHT22;63796;53.136;14.882;2023-05-20T09:51:04;16.80;99.90
75210;DHT22;63796;53.136;14.882;2023-05-20T09:53:33;17.70;99.90
75210;DHT22;63796;53.136;14.882;2023-05-20T09:56:00;18.10;99.90
75210;DHT22;63796;53.136;14.882;2023-05-20T09:58:27;18.40;99.90
75210;DHT22;63796;53.136;14.882;2023-05-20T10:00:56;17.90;99.90
75210;DHT22;63796;53.136;14.882;2023-05-20T10:03:23;17.60;99.90
75210;DHT22;63796;53.136;14.882;2023-05-20T10:06:23;17.00;99.90
75210;DHT22;63796;53.136;14.882;2023-05-20T10:11:42;17.10;99.90
75210;DHT22;63796;53.136;14.882;2023-05-20T10:17:16;16.80;99.90
75210;DHT22;63796;53.136;14.882;2023-05-20T10:19:56;17.20;99.90
75210;DHT22;63796;53.136;14.882;2023-05-20T10:22:28;17.60;99.90
75210;DHT22;63796;53.136;14.882;2023-05-20T10:24:58;17.70;99.90
75210;DHT22;63796;53.136;14.882;2023-05-20T10:27:26;17.60;99.90
75210;DHT22;63796;53.136;14.882;2023-05-20T10:29:54;17.50;99.90
75210;DHT22;63796;53.136;14.882;2023-05-20T10:32:23;17.40;99.90
75210;DHT22;63796;53.136;14.882;2023-05-20T10:34:51;17.30;99.90
75210;DHT22;63796;53.136;14.882;2023-05-20T10:37:22;17.20;99.90
75210;DHT22;63796;53.136;14.882;2023-05-20T10:42:34;17.60;99.90
75210;DHT22;63796;53.136;14.882;2023-05-20T10:45:02;17.60;99.90
75210;DHT22;63796;53.136;14.882;2023-05-20T10:47:30;17.40;99.90
75210;DHT22;63796;53.136;14.882;2023-05-20T10:49:57;17.20;99.90
75210;DHT22;63796;53.136;14.882;2023-05-20T10:52:25;17.50;99.90
75210;DHT22;63796;53.136;14.882;2023-05-20T10:57:20;17.40;99.90
75210;DHT22;63796;53.136;14.882;2023-05-20T10:59:48;17.60;99.90
75210;DHT22;63796;53.136;14.882;2023-05-20T11:02:17;18.10;99.90
75210;DHT22;63796;53.136;14.882;2023-05-20T11:04:45;17.90;99.90
75210;DHT22;63796;53.136;14.882;2023-05-20T11:07:23;17.80;99.90
75210;DHT22;63796;53.136;14.882;2023-05-20T11:09:57;18.00;99.90
75210;DHT22;63796;53.136;14.882;2023-05-20T11:12:25;17.70;99.90
75210;DHT22;63796;53.136;14.882;2023-05-20T11:14:53;17.90;99.90
75210;DHT22;63796;53.136;14.882;2023-05-20T11:17:21;17.80;99.90
75210;DHT22;63796;53.136;14.882;2023-05-20T11:19:48;17.80;99.90
75210;DHT22;63796;53.136;14.882;2023-05-20T11:22:16;17.90;99.90
75210;DHT22;63796;53.136;14.882;2023-05-20T11:24:45;18.00;99.90
75210;DHT22;63796;53.136;14.882;2023-05-20T11:27:12;18.10;99.90
75210;DHT22;63796;53.136;14.882;2023-05-20T11:29:40;18.60;99.90
75210;DHT22;63796;53.136;14.882;2023-05-20T11:32:07;19.20;99.90
75210;DHT22;63796;53.136;14.882;2023-05-20T11:34:35;19.70;99.90
75210;DHT22;63796;53.136;14.882;2023-05-20T11:37:07;19.80;99.90
75210;DHT22;63796;53.136;14.882;2023-05-20T11:39:36;19.70;99.90
75210;DHT22;63796;53.136;14.882;2023-05-20T11:42:03;19.70;99.90
75210;DHT22;63796;53.136;14.882;2023-05-20T11:44:32;19.70;99.90
75210;DHT22;63796;53.136;14.882;2023-05-20T11:47:00;19.80;99.90
75210;DHT22;63796;53.136;14.882;2023-05-20T11:49:29;19.70;99.90
75210;DHT22;63796;53.136;14.882;2023-05-20T11:51:56;19.90;99.90
75210;DHT22;63796;53.136;14.882;2023-05-20T11:54:24;19.60;99.90
75210;DHT22;63796;53.136;14.882;2023-05-20T11:56:52;20.10;99.90
75210;DHT22;63796;53.136;14.882;2023-05-20T11:59:22;20.30;99.90
75210;DHT22;63796;53.136;14.882;2023-05-20T12:01:50;20.80;99.90
75210;DHT22;63796;53.136;14.882;2023-05-20T12:04:18;20.90;99.90
75210;DHT22;63796;53.136;14.882;2023-05-20T12:06:45;20.90;99.90
75210;DHT22;63796;53.136;14.882;2023-05-20T12:09:13;20.80;99.90
75210;DHT22;63796;53.136;14.882;2023-05-20T12:11:40;20.70;99.90
75210;DHT22;63796;53.136;14.882;2023-05-20T12:14:08;20.30;99.90
75210;DHT22;63796;53.136;14.882;2023-05-20T12:16:36;19.80;99.90
75210;DHT22;63796;53.136;14.882;2023-05-20T12:19:04;20.10;99.90
75210;DHT22;63796;53.136;14.882;2023-05-20T12:21:31;20.20;99.90
75210;DHT22;63796;53.136;14.882;2023-05-20T12:23:59;20.00;99.90
75210;DHT22;63796;53.136;14.882;2023-05-20T12:26:27;19.40;99.90
75210;DHT22;63796;53.136;14.882;2023-05-20T12:28:55;19.30;99.90
75210;DHT22;63796;53.136;14.882;2023-05-20T12:31:23;19.50;99.90
75210;DHT22;63796;53.136;14.882;2023-05-20T12:33:51;19.40;99.90
75210;DHT22;63796;53.136;14.882;2023-05-20T12:36:18;19.40;99.90
75210;DHT22;63796;53.136;14.882;2023-05-20T12:38:46;19.60;99.90
75210;DHT22;63796;53.136;14.882;2023-05-20T12:41:14;20.10;99.90
75210;DHT22;63796;53.136;14.882;2023-05-20T12:43:41;20.10;99.90
75210;DHT22;63796;53.136;14.882;2023-05-20T12:46:08;19.70;99.90
75210;DHT22;63796;53.136;14.882;2023-05-20T12:48:36;20.20;99.90
75210;DHT22;63796;53.136;14.882;2023-05-20T12:51:06;20.10;99.90
75210;DHT22;63796;53.136;14.882;2023-05-20T12:53:34;19.80;99.90
75210;DHT22;63796;53.136;14.882;2023-05-20T12:56:02;20.00;99.90
75210;DHT22;63796;53.136;14.882;2023-05-20T12:58:31;20.10;99.90
75210;DHT22;63796;53.136;14.882;2023-05-20T13:00:59;19.50;99.90
75210;DHT22;63796;53.136;14.882;2023-05-20T13:03:26;19.70;99.90
75210;DHT22;63796;53.136;14.882;2023-05-20T13:05:53;20.10;99.90
75210;DHT22;63796;53.136;14.882;2023-05-20T13:08:21;20.50;99.90
75210;DHT22;63796;53.136;14.882;2023-05-20T13:10:48;20.40;99.90
75210;DHT22;63796;53.136;14.882;2023-05-20T13:13:15;20.80;99.90
75210;DHT22;63796;53.136;14.882;2023-05-20T13:15:47;21.10;99.90
75210;DHT22;63796;53.136;14.882;2023-05-20T13:18:17;20.60;99.90
75210;DHT22;63796;53.136;14.882;2023-05-20T13:20:45;20.50;99.90
75210;DHT22;63796;53.136;14.882;2023-05-20T13:23:12;20.50;99.90
75210;DHT22;63796;53.136;14.882;2023-05-20T13:25:40;20.90;99.90
75210;DHT22;63796;53.136;14.882;2023-05-20T13:28:07;20.80;99.90
75210;DHT22;63796;53.136;14.882;2023-05-20T13:30:35;20.60;99.90
75210;DHT22;63796;53.136;14.882;2023-05-20T13:33:03;21.20;99.90
75210;DHT22;63796;53.136;14.882;2023-05-20T13:35:30;20.80;99.90
75210;DHT22;63796;53.136;14.882;2023-05-20T13:37:57;21.00;99.90
75210;DHT22;63796;53.136;14.882;2023-05-20T13:40:25;20.90;99.90
75210;DHT22;63796;53.136;14.882;2023-05-20T13:42:52;21.10;99.90
75210;DHT22;63796;53.136;14.882;2023-05-20T13:45:20;21.00;99.90
75210;DHT22;63796;53.136;14.882;2023-05-20T13:47:49;21.10;99.90
75210;DHT22;63796;53.136;14.882;2023-05-20T13:50:16;21.20;99.90
75210;DHT22;63796;53.136;14.882;2023-05-20T13:52:44;20.90;99.90
75210;DHT22;63796;53.136;14.882;2023-05-20T13:55:11;20.90;99.90
75210;DHT22;63796;53.136;14.882;2023-05-20T13:57:39;20.60;99.90
75210;DHT22;63796;53.136;14.882;2023-05-20T14:00:06;20.50;99.90
75210;DHT22;63796;53.136;14.882;2023-05-20T14:02:35;20.50;99.90
75210;DHT22;63796;53.136;14.882;2023-05-20T14:05:04;20.70;99.90
75210;DHT22;63796;53.136;14.882;2023-05-20T14:07:33;21.00;99.90
75210;DHT22;63796;53.136;14.882;2023-05-20T14:10:00;20.80;99.90
75210;DHT22;63796;53.136;14.882;2023-05-20T14:12:28;20.80;99.90
75210;DHT22;63796;53.136;14.882;2023-05-20T14:14:55;20.50;99.90
75210;DHT22;63796;53.136;14.882;2023-05-20T14:17:23;20.50;99.90
75210;DHT22;63796;53.136;14.882;2023-05-20T14:19:51;20.70;99.90
75210;DHT22;63796;53.136;14.882;2023-05-20T14:22:19;20.70;99.90
75210;DHT22;63796;53.136;14.882;2023-05-20T14:24:46;20.80;99.90
75210;DHT22;63796;53.136;14.882;2023-05-20T14:27:14;20.90;99.90
75210;DHT22;63796;53.136;14.882;2023-05-20T14:29:42;20.90;99.90
75210;DHT22;63796;53.136;14.882;2023-05-20T14:32:09;20.80;99.90
75210;DHT22;63796;53.136;14.882;2023-05-20T14:34:38;20.80;99.90
75210;DHT22;63796;53.136;14.882;2023-05-20T14:37:06;20.70;99.90
75210;DHT22;63796;53.136;14.882;2023-05-20T14:39:36;20.90;99.90
75210;DHT22;63796;53.136;14.882;2023-05-20T14:42:04;20.80;99.90
75210;DHT22;63796;53.136;14.882;2023-05-20T14:44:32;20.70;99.90
75210;DHT22;63796;53.136;14.882;2023-05-20T14:46:59;20.90;99.90
75210;DHT22;63796;53.136;14.882;2023-05-20T14:49:27;20.90;99.90
75210;DHT22;63796;53.136;14.882;2023-05-20T14:51:54;21.10;99.90
75210;DHT22;63796;53.136;14.882;2023-05-20T14:54:22;21.30;99.90
75210;DHT22;63796;53.136;14.882;2023-05-20T14:56:50;21.20;99.90
75210;DHT22;63796;53.136;14.882;2023-05-20T14:59:18;21.10;99.90
75210;DHT22;63796;53.136;14.882;2023-05-20T15:01:45;21.30;99.90
75210;DHT22;63796;53.136;14.882;2023-05-20T15:04:13;21.40;99.90
75210;DHT22;63796;53.136;14.882;2023-05-20T15:06:40;21.30;99.90
75210;DHT22;63796;53.136;14.882;2023-05-20T15:09:07;21.30;99.90
75210;DHT22;63796;53.136;14.882;2023-05-20T15:11:36;21.30;99.90
75210;DHT22;63796;53.136;14.882;2023-05-20T15:14:03;21.20;99.90
75210;DHT22;63796;53.136;14.882;2023-05-20T15:16:30;21.00;99.90
75210;DHT22;63796;53.136;14.882;2023-05-20T15:18:58;21.10;99.90
75210;DHT22;63796;53.136;14.882;2023-05-20T15:21:26;21.20;99.90
75210;DHT22;63796;53.136;14.882;2023-05-20T15:23:53;21.10;99.90
75210;DHT22;63796;53.136;14.882;2023-05-20T15:26:20;21.10;99.90
75210;DHT22;63796;53.136;14.882;2023-05-20T15:28:48;21.30;99.90
75210;DHT22;63796;53.136;14.882;2023-05-20T15:31:15;21.40;99.90
75210;DHT22;63796;53.136;14.882;2023-05-20T15:33:43;21.30;99.90
75210;DHT22;63796;53.136;14.882;2023-05-20T15:36:10;21.20;99.90